sensor_id;sensor_type;location;lat;lon;timestamp;pressure;altitude;pressure_sealevel;temperature;humidity
9229;BME280;4649;42.644;23.284;2023-05-25T00:00:20;93026.97;;;15.58;88.20
9229;BME280;4649;42.644;23.284;2023-05-25T00:02:50;93061.94;;;15.72;87.81
9229;BME280;4649;42.644;23.284;2023-05-25T00:05:30;92947.47;;;14.97;88.91
9229;BME280;4649;42.644;23.284;2023-05-25T00:08:21;93061.00;;;15.70;88.95
9229;BME280;4649;42.644;23.284;2023-05-25T00:11:06;92924.41;;;14.85;86.63
9229;BME280;4649;42.644;23.284;2023-05-25T00:13:49;92973.75;;;15.25;86.58
9229;BME280;4649;42.644;23.284;2023-05-25T00:16:47;93063.31;;;15.79;86.04
9229;BME280;4649;42.644;23.284;2023-05-25T00:19:20;92966.91;;;14.75;90.58
9229;BME280;4649;42.644;23.284;2023-05-25T00:22:10;92956.16;;;14.51;92.90
9229;BME280;4649;42.644;23.284;2023-05-25T00:24:42;92957.50;;;14.45;92.09
9229;BME280;4649;42.644;23.284;2023-05-25T00:27:14;93057.28;;;15.10;93.97
9229;BME280;4649;42.644;23.284;2023-05-25T00:29:46;92992.38;;;14.77;91.99
9229;BME280;4649;42.644;23.284;2023-05-25T00:32:28;93003.56;;;14.43;93.18
9229;BME280;4649;42.644;23.284;2023-05-25T00:35:03;92984.59;;;14.19;94.62
9229;BME280;4649;42.644;23.284;2023-05-25T00:37:31;93005.72;;;14.13;97.99
9229;BME280;4649;42.644;23.284;2023-05-25T00:43:09;93071.34;;;14.64;98.49
9229;BME280;4649;42.644;23.284;2023-05-25T00:45:45;93033.06;;;14.57;97.74
9229;BME280;4649;42.644;23.284;2023-05-25T00:48:33;92973.69;;;14.19;97.83
9229;BME280;4649;42.644;23.284;2023-05-25T00:51:17;93060.50;;;14.77;95.92
9229;BME280;4649;42.644;23.284;2023-05-25T00:53:47;92944.03;;;13.97;96.32
9229;BME280;4649;42.644;23.284;2023-05-25T00:56:37;93029.63;;;14.57;96.31
9229;BME280;4649;42.644;23.284;2023-05-25T00:59:10;93086.34;;;14.89;96.29
9229;BME280;4649;42.644;23.284;2023-05-25T01:01:53;93051.16;;;14.73;98.45
9229;BME280;4649;42.644;23.284;2023-05-25T01:07:49;92991.38;;;14.31;96.31
9229;BME280;4649;42.644;23.284;2023-05-25T01:10:21;92934.69;;;13.74;98.45
9229;BME280;4649;42.644;23.284;2023-05-25T01:13:02;93086.16;;;14.69;99.96
9229;BME280;4649;42.644;23.284;2023-05-25T01:15:50;93083.03;;;14.60;100.00
9229;BME280;4649;42.644;23.284;2023-05-25T01:18:47;92932.16;;;13.39;100.00
9229;BME280;4649;42.644;23.284;2023-05-25T01:24:57;93016.47;;;14.00;100.00
9229;BME280;4649;42.644;23.284;2023-05-25T01:27:42;92933.94;;;13.55;100.00
9229;BME280;4649;42.644;23.284;2023-05-25T01:30:30;93070.47;;;14.57;100.00
9229;BME280;4649;42.644;23.284;2023-05-25T01:33:25;93012.47;;;14.25;99.45
9229;BME280;4649;42.644;23.284;2023-05-25T01:36:24;93051.09;;;14.42;100.00
9229;BME280;4649;42.644;23.284;2023-05-25T01:39:32;92854.94;;;12.87;100.00
9229;BME280;4649;42.644;23.284;2023-05-25T02:08:12;92951.63;;;13.86;100.00
9229;BME280;4649;42.644;23.284;2023-05-25T02:11:01;92937.50;;;13.69;97.90
9229;BME280;4649;42.644;23.284;2023-05-25T02:13:46;93007.31;;;14.21;96.50
9229;BME280;4649;42.644;23.284;2023-05-25T02:16:45;92980.19;;;14.16;94.79
9229;BME280;4649;42.644;23.284;2023-05-25T02:19:56;92880.06;;;13.36;96.28
9229;BME280;4649;42.644;23.284;2023-05-25T02:22:43;92980.22;;;13.92;96.57
9229;BME280;4649;42.644;23.284;2023-05-25T02:25:25;93003.03;;;14.07;97.76
9229;BME280;4649;42.644;23.284;2023-05-25T02:27:53;93067.59;;;14.49;97.73
9229;BME280;4649;42.644;23.284;2023-05-25T02:30:37;93080.69;;;14.51;98.84
9229;BME280;4649;42.644;23.284;2023-05-25T02:33:15;92953.66;;;13.61;98.85
9229;BME280;4649;42.644;23.284;2023-05-25T02:36:01;93084.06;;;14.38;100.00
9229;BME280;4649;42.644;23.284;2023-05-25T02:38:41;92976.88;;;13.62;99.92
9229;BME280;4649;42.644;23.284;2023-05-25T02:41:11;92950.13;;;13.48;100.00
9229;BME280;4649;42.644;23.284;2023-05-25T02:43:41;92995.91;;;13.86;99.95
9229;BME280;4649;42.644;23.284;2023-05-25T02:46:12;92997.22;;;13.80;100.00
9229;BME280;4649;42.644;23.284;2023-05-25T02:48:42;93011.53;;;13.80;100.00
9229;BME280;4649;42.644;23.284;2023-05-25T02:51:29;92948.59;;;13.29;100.00
9229;BME280;4649;42.644;23.284;2023-05-25T02:56:54;93103.72;;;14.50;99.76
9229;BME280;4649;42.644;23.284;2023-05-25T03:02:57;93104.75;;;14.04;100.00
9229;BME280;4649;42.644;23.284;2023-05-25T03:05:32;93104.31;;;14.00;100.00
9229;BME280;4649;42.644;23.284;2023-05-25T03:08:28;93006.34;;;13.35;100.00
9229;BME280;4649;42.644;23.284;2023-05-25T03:11:14;93068.84;;;13.88;100.00
9229;BME280;4649;42.644;23.284;2023-05-25T03:14:02;93072.53;;;13.90;100.00
9229;BME280;4649;42.644;23.284;2023-05-25T03:16:31;93090.19;;;14.02;100.00
9229;BME280;4649;42.644;23.284;2023-05-25T03:19:13;93038.41;;;13.65;100.00
9229;BME280;4649;42.644;23.284;2023-05-25T03:21:45;93075.91;;;13.96;100.00
9229;BME280;4649;42.644;23.284;2023-05-25T03:24:13;93071.94;;;13.97;100.00
9229;BME280;4649;42.644;23.284;2023-05-25T03:26:43;93060.00;;;13.82;100.00
9229;BME280;4649;42.644;23.284;2023-05-25T03:29:13;93103.34;;;14.22;100.00
9229;BME280;4649;42.644;23.284;2023-05-25T03:31:44;93113.19;;;14.25;100.00
9229;BME280;4649;42.644;23.284;2023-05-25T03:34:14;93015.81;;;13.52;100.00
9229;BME280;4649;42.644;23.284;2023-05-25T03:36:44;93122.25;;;14.33;100.00
9229;BME280;4649;42.644;23.284;2023-05-25T03:39:20;92912.16;;;12.95;100.00
9229;BME280;4649;42.644;23.284;2023-05-25T03:41:55;92937.44;;;13.32;100.00
9229;BME280;4649;42.644;23.284;2023-05-25T03:44:30;93001.81;;;13.85;100.00
9229;BME280;4649;42.644;23.284;2023-05-25T03:47:01;92989.25;;;13.82;100.00
9229;BME280;4649;42.644;23.284;2023-05-25T03:49:37;93081.56;;;14.77;100.00
9229;BME280;4649;42.644;23.284;2023-05-25T03:52:05;92907.47;;;13.38;100.00
9229;BME280;4649;42.644;23.284;2023-05-25T03:54:33;93044.34;;;14.30;100.00
9229;BME280;4649;42.644;23.284;2023-05-25T03:57:11;93102.88;;;14.60;100.00
9229;BME280;4649;42.644;23.284;2023-05-25T03:59:47;93082.47;;;14.66;100.00
9229;BME280;4649;42.644;23.284;2023-05-25T04:02:15;93084.25;;;14.95;100.00
9229;BME280;4649;42.644;23.284;2023-05-25T04:04:43;93141.69;;;15.65;100.00
9229;BME280;4649;42.644;23.284;2023-05-25T04:07:17;93132.94;;;16.24;98.07
9229;BME280;4649;42.644;23.284;2023-05-25T04:09:58;93017.63;;;15.92;94.80
9229;BME280;4649;42.644;23.284;2023-05-25T04:12:31;93062.31;;;16.66;89.95
9229;BME280;4649;42.644;23.284;2023-05-25T04:15:08;93094.13;;;17.10;88.14
9229;BME280;4649;42.644;23.284;2023-05-25T04:17:44;92980.28;;;16.46;87.97
9229;BME280;4649;42.644;23.284;2023-05-25T04:20:34;93145.31;;;17.76;88.20
9229;BME280;4649;42.644;23.284;2023-05-25T04:23:13;93096.28;;;17.85;85.67
9229;BME280;4649;42.644;23.284;2023-05-25T04:25:40;92949.97;;;17.38;81.35
9229;BME280;4649;42.644;23.284;2023-05-25T04:28:39;93032.94;;;18.44;77.67
9229;BME280;4649;42.644;23.284;2023-05-25T04:31:14;93152.00;;;19.71;75.00
9229;BME280;4649;42.644;23.284;2023-05-25T04:33:44;93082.75;;;19.21;75.33
9229;BME280;4649;42.644;23.284;2023-05-25T04:36:22;93160.44;;;19.73;75.66
9229;BME280;4649;42.644;23.284;2023-05-25T04:38:57;93163.00;;;19.71;78.20
9229;BME280;4649;42.644;23.284;2023-05-25T04:48:54;93172.34;;;19.11;88.04
9229;BME280;4649;42.644;23.284;2023-05-25T04:51:48;93149.25;;;19.57;81.23
9229;BME280;4649;42.644;23.284;2023-05-25T04:54:25;93096.19;;;19.61;76.24
9229;BME280;4649;42.644;23.284;2023-05-25T04:57:09;93166.88;;;20.58;72.50
9229;BME280;4649;42.644;23.284;2023-05-25T04:59:43;93115.53;;;20.68;76.06
9229;BME280;4649;42.644;23.284;2023-05-25T05:02:30;93055.72;;;20.76;70.47
9229;BME280;4649;42.644;23.284;2023-05-25T05:05:00;93089.25;;;21.60;71.34
9229;BME280;4649;42.644;23.284;2023-05-25T05:07:33;93150.47;;;22.72;71.50
9229;BME280;4649;42.644;23.284;2023-05-25T05:10:08;93149.59;;;23.21;67.09
9229;BME280;4649;42.644;23.284;2023-05-25T05:12:39;93033.50;;;22.68;59.69
9229;BME280;4649;42.644;23.284;2023-05-25T05:15:12;93092.03;;;23.00;61.76
9229;BME280;4649;42.644;23.284;2023-05-25T05:17:42;93154.47;;;23.13;60.47
9229;BME280;4649;42.644;23.284;2023-05-25T05:20:18;93149.09;;;22.98;66.53
9229;BME280;4649;42.644;23.284;2023-05-25T05:23:09;93152.78;;;23.00;64.69
9229;BME280;4649;42.644;23.284;2023-05-25T05:25:58;93147.38;;;22.85;62.36
9229;BME280;4649;42.644;23.284;2023-05-25T05:28:43;93146.81;;;23.04;65.67
9229;BME280;4649;42.644;23.284;2023-05-25T05:31:26;92999.06;;;21.85;65.36
9229;BME280;4649;42.644;23.284;2023-05-25T05:34:08;93162.72;;;22.96;65.20
9229;BME280;4649;42.644;23.284;2023-05-25T05:44:04;93008.72;;;21.69;59.61
9229;BME280;4649;42.644;23.284;2023-05-25T05:46:41;93171.72;;;22.79;60.36
9229;BME280;4649;42.644;23.284;2023-05-25T05:49:41;93182.03;;;22.79;58.96
9229;BME280;4649;42.644;23.284;2023-05-25T05:52:33;93186.41;;;22.82;58.18
9229;BME280;4649;42.644;23.284;2023-05-25T05:55:32;93183.00;;;22.91;60.72
9229;BME280;4649;42.644;23.284;2023-05-25T05:58:32;93193.50;;;23.43;62.65
9229;BME280;4649;42.644;23.284;2023-05-25T06:01:27;93195.06;;;23.70;56.65
9229;BME280;4649;42.644;23.284;2023-05-25T06:04:27;93189.75;;;23.82;55.02
9229;BME280;4649;42.644;23.284;2023-05-25T06:07:51;93194.94;;;24.30;55.17
9229;BME280;4649;42.644;23.284;2023-05-25T06:17:39;93188.31;;;24.16;53.26
9229;BME280;4649;42.644;23.284;2023-05-25T06:20:30;93072.44;;;23.75;55.60
9229;BME280;4649;42.644;23.284;2023-05-25T06:23:32;93013.31;;;23.09;53.65
9229;BME280;4649;42.644;23.284;2023-05-25T06:26:57;93017.06;;;23.56;52.12
9229;BME280;4649;42.644;23.284;2023-05-25T06:30:07;93078.88;;;23.87;50.65
9229;BME280;4649;42.644;23.284;2023-05-25T06:42:29;93190.47;;;24.80;53.79
9229;BME280;4649;42.644;23.284;2023-05-25T06:45:27;93035.75;;;23.48;53.15
9229;BME280;4649;42.644;23.284;2023-05-25T06:48:52;93207.78;;;24.80;54.76
9229;BME280;4649;42.644;23.284;2023-05-25T06:58:26;93169.41;;;25.22;52.81
9229;BME280;4649;42.644;23.284;2023-05-25T07:01:17;93164.16;;;25.17;51.26
9229;BME280;4649;42.644;23.284;2023-05-25T07:04:04;93214.88;;;25.38;53.21
9229;BME280;4649;42.644;23.284;2023-05-25T07:07:08;93209.34;;;25.57;52.17
9229;BME280;4649;42.644;23.284;2023-05-25T07:09:45;93199.13;;;25.87;53.55
9229;BME280;4649;42.644;23.284;2023-05-25T07:13:02;93206.16;;;25.60;53.41
9229;BME280;4649;42.644;23.284;2023-05-25T07:16:04;93171.25;;;24.91;53.49
9229;BME280;4649;42.644;23.284;2023-05-25T07:19:02;93194.16;;;25.20;54.43
9229;BME280;4649;42.644;23.284;2023-05-25T07:28:01;93144.75;;;25.07;51.49
9229;BME280;4649;42.644;23.284;2023-05-25T07:30:46;93203.75;;;26.13;53.45
9229;BME280;4649;42.644;23.284;2023-05-25T07:33:18;93218.28;;;26.42;50.41
9229;BME280;4649;42.644;23.284;2023-05-25T07:36:00;93183.75;;;26.05;48.91
9229;BME280;4649;42.644;23.284;2023-05-25T07:38:28;93156.41;;;25.43;48.78
9229;BME280;4649;42.644;23.284;2023-05-25T07:41:14;93202.34;;;25.56;49.82
9229;BME280;4649;42.644;23.284;2023-05-25T07:44:03;93218.69;;;25.42;49.84
9229;BME280;4649;42.644;23.284;2023-05-25T07:46:42;93197.81;;;25.41;50.23
9229;BME280;4649;42.644;23.284;2023-05-25T07:49:30;93197.25;;;25.62;49.00
9229;BME280;4649;42.644;23.284;2023-05-25T07:52:14;93187.03;;;25.83;48.75
9229;BME280;4649;42.644;23.284;2023-05-25T07:54:45;93219.81;;;26.15;47.93
9229;BME280;4649;42.644;23.284;2023-05-25T08:00:40;93214.47;;;25.79;49.68
9229;BME280;4649;42.644;23.284;2023-05-25T08:03:22;93218.69;;;25.33;50.22
9229;BME280;4649;42.644;23.284;2023-05-25T08:09:22;93176.72;;;23.31;55.97
9229;BME280;4649;42.644;23.284;2023-05-25T08:12:01;93218.16;;;23.15;58.76
9229;BME280;4649;42.644;23.284;2023-05-25T08:15:26;93226.91;;;22.38;63.01
9229;BME280;4649;42.644;23.284;2023-05-25T08:18:20;93231.22;;;21.93;67.19
9229;BME280;4649;42.644;23.284;2023-05-25T08:21:12;93236.50;;;21.66;67.09
9229;BME280;4649;42.644;23.284;2023-05-25T08:24:17;93253.84;;;21.37;62.77
9229;BME280;4649;42.644;23.284;2023-05-25T08:27:44;93194.56;;;20.60;61.49
9229;BME280;4649;42.644;23.284;2023-05-25T10:46:57;93099.91;;;20.70;83.11
9229;BME280;4649;42.644;23.284;2023-05-25T10:50:07;93218.53;;;21.65;80.27
9229;BME280;4649;42.644;23.284;2023-05-25T10:53:11;93210.13;;;21.88;80.95
9229;BME280;4649;42.644;23.284;2023-05-25T10:56:08;93165.84;;;21.61;79.82
9229;BME280;4649;42.644;23.284;2023-05-25T10:58:56;93204.78;;;21.90;78.87
9229;BME280;4649;42.644;23.284;2023-05-25T11:01:54;93195.13;;;22.05;76.34
9229;BME280;4649;42.644;23.284;2023-05-25T11:04:39;93063.81;;;21.13;76.67
9229;BME280;4649;42.644;23.284;2023-05-25T11:07:30;93028.97;;;20.69;76.50
9229;BME280;4649;42.644;23.284;2023-05-25T11:13:57;93193.56;;;21.56;79.67
9229;BME280;4649;42.644;23.284;2023-05-25T11:17:06;93184.78;;;21.50;82.98
9229;BME280;4649;42.644;23.284;2023-05-25T11:19:56;93200.06;;;21.43;79.10
9229;BME280;4649;42.644;23.284;2023-05-25T11:22:58;93195.91;;;21.20;80.86
9229;BME280;4649;42.644;23.284;2023-05-25T11:42:28;93073.28;;;19.89;79.17
9229;BME280;4649;42.644;23.284;2023-05-25T11:45:05;93084.47;;;20.06;80.37
9229;BME280;4649;42.644;23.284;2023-05-25T11:47:49;93202.91;;;21.06;78.63
9229;BME280;4649;42.644;23.284;2023-05-25T11:54:01;93213.34;;;21.15;76.71
9229;BME280;4649;42.644;23.284;2023-05-25T11:56:45;93198.72;;;21.05;79.32
9229;BME280;4649;42.644;23.284;2023-05-25T12:00:06;93198.69;;;21.13;75.63
9229;BME280;4649;42.644;23.284;2023-05-25T12:02:53;93196.25;;;21.24;77.36
9229;BME280;4649;42.644;23.284;2023-05-25T12:05:37;93190.16;;;21.33;76.09
9229;BME280;4649;42.644;23.284;2023-05-25T12:08:11;93087.81;;;20.66;76.20
9229;BME280;4649;42.644;23.284;2023-05-25T12:11:02;93192.53;;;21.37;75.42
9229;BME280;4649;42.644;23.284;2023-05-25T12:13:44;93147.63;;;21.19;73.14
9229;BME280;4649;42.644;23.284;2023-05-25T12:23:00;93116.16;;;21.37;68.06
9229;BME280;4649;42.644;23.284;2023-05-25T12:26:09;93181.41;;;22.22;66.05
9229;BME280;4649;42.644;23.284;2023-05-25T12:32:12;93125.59;;;22.14;63.48
9229;BME280;4649;42.644;23.284;2023-05-25T12:35:11;93163.56;;;22.48;63.28
9229;BME280;4649;42.644;23.284;2023-05-25T12:54:48;93134.31;;;22.69;58.37
9229;BME280;4649;42.644;23.284;2023-05-25T12:57:38;93131.16;;;22.72;57.83
9229;BME280;4649;42.644;23.284;2023-05-25T13:00:37;93124.59;;;22.85;58.48
9229;BME280;4649;42.644;23.284;2023-05-25T13:03:32;93067.84;;;22.58;56.28
9229;BME280;4649;42.644;23.284;2023-05-25T13:06:18;93112.88;;;22.94;54.71
9229;BME280;4649;42.644;23.284;2023-05-25T13:09:14;93068.91;;;22.62;55.61
9229;BME280;4649;42.644;23.284;2023-05-25T13:19:05;93049.84;;;22.15;55.77
9229;BME280;4649;42.644;23.284;2023-05-25T13:21:50;93094.69;;;22.57;56.66
9229;BME280;4649;42.644;23.284;2023-05-25T13:27:13;93103.75;;;22.33;57.83
9229;BME280;4649;42.644;23.284;2023-05-25T13:30:10;93095.91;;;22.47;57.34
9229;BME280;4649;42.644;23.284;2023-05-25T13:32:58;92984.13;;;21.88;56.53
9229;BME280;4649;42.644;23.284;2023-05-25T13:38:55;93099.97;;;22.46;57.58
9229;BME280;4649;42.644;23.284;2023-05-25T13:41:52;93105.88;;;22.59;54.76
9229;BME280;4649;42.644;23.284;2023-05-25T13:47:19;93106.81;;;22.78;54.69
9229;BME280;4649;42.644;23.284;2023-05-25T13:49:53;92992.88;;;21.77;52.58
9229;BME280;4649;42.644;23.284;2023-05-25T13:52:25;93105.88;;;22.59;53.55
9229;BME280;4649;42.644;23.284;2023-05-25T13:55:08;93067.78;;;22.24;52.00
9229;BME280;4649;42.644;23.284;2023-05-25T13:57:52;92997.09;;;21.78;54.48
9229;BME280;4649;42.644;23.284;2023-05-25T14:03:30;93108.75;;;22.52;50.46
9229;BME280;4649;42.644;23.284;2023-05-25T14:06:16;93107.53;;;22.62;51.32
9229;BME280;4649;42.644;23.284;2023-05-25T14:08:51;93106.13;;;22.70;53.25
9229;BME280;4649;42.644;23.284;2023-05-25T14:11:45;92987.06;;;22.23;49.67
9229;BME280;4649;42.644;23.284;2023-05-25T14:14:54;93106.75;;;23.03;51.80
9229;BME280;4649;42.644;23.284;2023-05-25T14:17:37;92987.44;;;22.27;50.53
9229;BME280;4649;42.644;23.284;2023-05-25T14:20:08;93062.06;;;22.80;48.50
9229;BME280;4649;42.644;23.284;2023-05-25T14:22:52;92995.94;;;22.39;47.79
9229;BME280;4649;42.644;23.284;2023-05-25T14:25:25;93011.69;;;22.46;47.34
9229;BME280;4649;42.644;23.284;2023-05-25T14:28:16;93047.19;;;22.92;46.15
9229;BME280;4649;42.644;23.284;2023-05-25T14:30:49;93039.06;;;22.94;45.89
9229;BME280;4649;42.644;23.284;2023-05-25T14:33:26;93087.69;;;23.24;44.77
9229;BME280;4649;42.644;23.284;2023-05-25T14:36:06;92992.91;;;22.78;45.15
9229;BME280;4649;42.644;23.284;2023-05-25T14:38:40;93073.88;;;23.24;47.26
9229;BME280;4649;42.644;23.284;2023-05-25T14:41:14;93081.00;;;23.27;43.16
9229;BME280;4649;42.644;23.284;2023-05-25T14:44:03;93080.66;;;22.96;44.21
9229;BME280;4649;42.644;23.284;2023-05-25T14:46:41;93069.44;;;23.11;43.16
9229;BME280;4649;42.644;23.284;2023-05-25T14:49:12;93075.53;;;23.10;42.80
9229;BME280;4649;42.644;23.284;2023-05-25T14:55:01;93030.25;;;22.79;44.06
9229;BME280;4649;42.644;23.284;2023-05-25T14:57:37;92963.06;;;22.50;42.82
9229;BME280;4649;42.644;23.284;2023-05-25T15:00:12;93068.50;;;22.99;43.46
9229;BME280;4649;42.644;23.284;2023-05-25T15:02:41;93036.41;;;22.36;43.45
9229;BME280;4649;42.644;23.284;2023-05-25T15:05:14;93030.91;;;22.70;43.58
9229;BME280;4649;42.644;23.284;2023-05-25T15:07:44;92919.91;;;21.61;43.59
9229;BME280;4649;42.644;23.284;2023-05-25T15:13:50;92995.00;;;21.37;46.97
9229;BME280;4649;42.644;23.284;2023-05-25T16:17:43;93024.06;;;17.96;91.67
9229;BME280;4649;42.644;23.284;2023-05-25T16:20:28;92966.00;;;17.34;91.75
9229;BME280;4649;42.644;23.284;2023-05-25T16:26:36;92989.59;;;17.72;94.31
9229;BME280;4649;42.644;23.284;2023-05-25T16:38:39;93110.69;;;18.69;95.83
9229;BME280;4649;42.644;23.284;2023-05-25T16:41:48;93116.25;;;18.84;94.50
9229;BME280;4649;42.644;23.284;2023-05-25T16:44:24;93051.03;;;18.47;93.52
9229;BME280;4649;42.644;23.284;2023-05-25T16:46:52;93055.41;;;18.50;93.92
9229;BME280;4649;42.644;23.284;2023-05-25T16:49:19;93133.94;;;19.11;92.45
9229;BME280;4649;42.644;23.284;2023-05-25T16:51:47;93132.75;;;18.99;97.18
9229;BME280;4649;42.644;23.284;2023-05-25T16:54:16;92989.50;;;17.85;98.86
9229;BME280;4649;42.644;23.284;2023-05-25T16:56:47;93140.84;;;19.04;95.44
9229;BME280;4649;42.644;23.284;2023-05-25T16:59:17;93155.13;;;19.03;96.36
9229;BME280;4649;42.644;23.284;2023-05-25T17:01:44;93129.94;;;18.77;95.52
9229;BME280;4649;42.644;23.284;2023-05-25T17:04:14;93109.47;;;18.42;100.00
9229;BME280;4649;42.644;23.284;2023-05-25T17:06:41;93163.06;;;18.86;97.84
9229;BME280;4649;42.644;23.284;2023-05-25T17:09:09;93118.63;;;18.45;100.00
9229;BME280;4649;42.644;23.284;2023-05-25T17:11:56;93125.53;;;18.38;100.00
9229;BME280;4649;42.644;23.284;2023-05-25T17:14:51;93146.47;;;18.56;100.00
9229;BME280;4649;42.644;23.284;2023-05-25T17:17:18;93167.34;;;18.67;100.00
9229;BME280;4649;42.644;23.284;2023-05-25T17:23:10;93163.19;;;18.45;100.00
9229;BME280;4649;42.644;23.284;2023-05-25T17:25:50;93114.06;;;17.71;100.00
9229;BME280;4649;42.644;23.284;2023-05-25T17:28:51;93067.19;;;17.14;100.00
9229;BME280;4649;42.644;23.284;2023-05-25T17:38:19;93152.16;;;16.83;100.00
9229;BME280;4649;42.644;23.284;2023-05-25T18:03:08;93001.41;;;15.17;100.00
9229;BME280;4649;42.644;23.284;2023-05-25T18:05:38;93039.00;;;15.24;100.00
9229;BME280;4649;42.644;23.284;2023-05-25T18:08:07;93158.75;;;16.10;100.00
9229;BME280;4649;42.644;23.284;2023-05-25T18:10:49;93104.47;;;15.93;100.00
9229;BME280;4649;42.644;23.284;2023-05-25T18:13:30;93074.22;;;15.79;100.00
9229;BME280;4649;42.644;23.284;2023-05-25T18:16:04;93123.16;;;15.89;100.00
9229;BME280;4649;42.644;23.284;2023-05-25T18:18:35;93158.19;;;15.73;100.00
9229;BME280;4649;42.644;23.284;2023-05-25T18:21:05;93196.03;;;15.94;100.00
9229;BME280;4649;42.644;23.284;2023-05-25T18:23:32;93152.59;;;15.65;100.00
9229;BME280;4649;42.644;23.284;2023-05-25T18:26:00;93170.16;;;15.70;100.00
9229;BME280;4649;42.644;23.284;2023-05-25T18:28:38;93076.66;;;15.07;100.00
9229;BME280;4649;42.644;23.284;2023-05-25T18:31:07;93204.22;;;15.94;100.00
9229;BME280;4649;42.644;23.284;2023-05-25T18:33:45;93164.50;;;15.81;100.00
9229;BME280;4649;42.644;23.284;2023-05-25T18:36:22;93204.91;;;16.26;100.00
9229;BME280;4649;42.644;23.284;2023-05-25T18:39:24;93187.28;;;16.27;100.00
9229;BME280;4649;42.644;23.284;2023-05-25T18:42:04;93225.72;;;16.29;100.00
9229;BME280;4649;42.644;23.284;2023-05-25T18:44:31;93173.41;;;15.68;100.00
9229;BME280;4649;42.644;23.284;2023-05-25T18:47:01;93095.53;;;14.86;100.00
9229;BME280;4649;42.644;23.284;2023-05-25T18:49:29;93243.94;;;16.08;100.00
9229;BME280;4649;42.644;23.284;2023-05-25T18:52:00;93124.97;;;15.24;100.00
9229;BME280;4649;42.644;23.284;2023-05-25T18:54:30;93046.53;;;14.68;100.00
9229;BME280;4649;42.644;23.284;2023-05-25T18:56:59;93257.63;;;15.59;100.00
9229;BME280;4649;42.644;23.284;2023-05-25T19:00:00;93163.22;;;15.19;100.00
9229;BME280;4649;42.644;23.284;2023-05-25T19:03:08;93261.81;;;15.60;100.00
9229;BME280;4649;42.644;23.284;2023-05-25T19:17:09;93211.75;;;14.42;100.00
9229;BME280;4649;42.644;23.284;2023-05-25T19:27:38;93340.69;;;14.97;100.00
9229;BME280;4649;42.644;23.284;2023-05-25T19:30:06;93254.00;;;14.54;100.00
9229;BME280;4649;42.644;23.284;2023-05-25T19:32:35;93194.50;;;14.15;100.00
9229;BME280;4649;42.644;23.284;2023-05-25T19:35:04;93206.44;;;14.31;100.00
9229;BME280;4649;42.644;23.284;2023-05-25T19:37:32;93215.44;;;14.68;100.00
9229;BME280;4649;42.644;23.284;2023-05-25T19:40:02;93233.44;;;14.53;100.00
9229;BME280;4649;42.644;23.284;2023-05-25T19:42:30;93139.16;;;13.54;100.00
9229;BME280;4649;42.644;23.284;2023-05-25T19:44:57;93350.03;;;15.02;100.00
9229;BME280;4649;42.644;23.284;2023-05-25T19:47:25;93312.94;;;14.75;100.00
9229;BME280;4649;42.644;23.284;2023-05-25T19:49:55;93308.47;;;14.54;100.00
9229;BME280;4649;42.644;23.284;2023-05-25T19:52:22;93131.84;;;13.38;100.00
9229;BME280;4649;42.644;23.284;2023-05-25T19:54:50;93111.38;;;13.03;100.00
9229;BME280;4649;42.644;23.284;2023-05-25T19:57:17;93305.53;;;14.70;100.00
9229;BME280;4649;42.644;23.284;2023-05-25T19:59:45;93285.84;;;14.82;100.00
9229;BME280;4649;42.644;23.284;2023-05-25T20:02:14;93219.28;;;14.36;100.00
9229;BME280;4649;42.644;23.284;2023-05-25T20:04:41;93370.53;;;15.56;100.00
9229;BME280;4649;42.644;23.284;2023-05-25T20:07:10;93358.16;;;15.31;100.00
9229;BME280;4649;42.644;23.284;2023-05-25T20:09:38;93172.94;;;13.88;100.00
9229;BME280;4649;42.644;23.284;2023-05-25T20:12:06;93261.69;;;14.50;100.00
9229;BME280;4649;42.644;23.284;2023-05-25T20:14:50;93329.25;;;14.80;100.00
9229;BME280;4649;42.644;23.284;2023-05-25T20:17:21;93108.34;;;13.12;100.00
9229;BME280;4649;42.644;23.284;2023-05-25T20:19:49;93165.50;;;13.65;100.00
9229;BME280;4649;42.644;23.284;2023-05-25T20:22:54;93266.00;;;14.40;100.00
9229;BME280;4649;42.644;23.284;2023-05-25T20:25:35;93191.47;;;14.19;100.00
9229;BME280;4649;42.644;23.284;2023-05-25T20:28:17;93171.94;;;14.39;100.00
9229;BME280;4649;42.644;23.284;2023-05-25T20:30:48;93109.34;;;13.91;100.00
9229;BME280;4649;42.644;23.284;2023-05-25T20:33:16;93158.06;;;14.18;100.00
9229;BME280;4649;42.644;23.284;2023-05-25T20:35:43;93242.59;;;14.73;100.00
9229;BME280;4649;42.644;23.284;2023-05-25T20:38:12;93245.41;;;14.68;100.00
9229;BME280;4649;42.644;23.284;2023-05-25T20:40:40;93059.09;;;13.50;100.00
9229;BME280;4649;42.644;23.284;2023-05-25T20:43:08;93082.16;;;13.67;100.00
9229;BME280;4649;42.644;23.284;2023-05-25T20:45:36;93066.06;;;13.45;100.00
9229;BME280;4649;42.644;23.284;2023-05-25T20:48:07;93072.03;;;13.38;100.00
9229;BME280;4649;42.644;23.284;2023-05-25T20:53:28;93209.97;;;14.26;100.00
9229;BME280;4649;42.644;23.284;2023-05-25T20:55:56;93210.75;;;14.45;100.00
9229;BME280;4649;42.644;23.284;2023-05-25T20:58:26;93066.28;;;13.47;100.00
9229;BME280;4649;42.644;23.284;2023-05-25T21:00:53;93155.00;;;14.27;100.00
9229;BME280;4649;42.644;23.284;2023-05-25T21:03:20;93145.16;;;14.43;100.00
9229;BME280;4649;42.644;23.284;2023-05-25T21:05:47;93126.63;;;14.41;100.00
9229;BME280;4649;42.644;23.284;2023-05-25T21:08:15;93091.53;;;14.14;100.00
9229;BME280;4649;42.644;23.284;2023-05-25T21:10:47;93174.28;;;14.71;100.00
9229;BME280;4649;42.644;23.284;2023-05-25T21:13:16;93237.56;;;15.01;100.00
9229;BME280;4649;42.644;23.284;2023-05-25T21:15:45;93031.28;;;13.62;100.00
9229;BME280;4649;42.644;23.284;2023-05-25T21:18:14;93126.47;;;14.34;100.00
9229;BME280;4649;42.644;23.284;2023-05-25T21:20:41;93097.09;;;13.79;100.00
9229;BME280;4649;42.644;23.284;2023-05-25T21:23:11;93211.56;;;14.40;100.00
9229;BME280;4649;42.644;23.284;2023-05-25T21:25:38;93173.78;;;14.31;100.00
9229;BME280;4649;42.644;23.284;2023-05-25T21:28:09;93119.09;;;14.05;100.00
9229;BME280;4649;42.644;23.284;2023-05-25T21:30:36;93017.41;;;13.42;100.00
9229;BME280;4649;42.644;23.284;2023-05-25T21:33:03;93039.34;;;13.49;100.00